Time;durP1;ratioP1;P1;durP2;ratioP2;P2;SDS_P1;SDS_P2;PMS_P1;PMS_P2;Temp;Humidity;BMP_temperature;BMP_pressure;BME280_temperature;BME280_humidity;BME280_pressure;Samples;Min_cycle;Max_cycle;Signal;HPM_P1;HPM_P2
2023/12/27 00:02:04;;;;;;;10.87;2.00;;;5.70;99.90;;;;;;5054573;28;20252;-55
2023/12/27 00:04:29;;;;;;;6.40;2.20;;;5.60;99.90;;;;;;5054424;28;20064;-56
2023/12/27 00:06:56;;;;;;;12.93;3.27;;;5.60;99.90;;;;;;5054409;28;20040;-55
2023/12/27 00:09:23;;;;;;;12.53;2.53;;;5.60;99.90;;;;;;5054131;28;20029;-55
2023/12/27 00:11:48;;;;;;;5.67;2.10;;;5.50;99.90;;;;;;5054305;28;20025;-56
2023/12/27 00:14:14;;;;;;;6.93;2.30;;;5.60;99.90;;;;;;5036347;28;20185;-55
2023/12/27 00:16:40;;;;;;;12.30;2.80;;;5.50;99.90;;;;;;5054212;28;20040;-55
2023/12/27 00:19:06;;;;;;;10.07;2.70;;;5.50;99.90;;;;;;5053953;28;20158;-56
2023/12/27 00:21:32;;;;;;;10.57;3.10;;;5.50;99.90;;;;;;5054103;28;20389;-55
2023/12/27 00:23:57;;;;;;;7.43;2.30;;;5.50;99.90;;;;;;5054067;28;20021;-56
2023/12/27 00:26:23;;;;;;;9.10;2.93;;;5.40;99.90;;;;;;5054185;28;20120;-56
2023/12/27 00:28:57;;;;;;;7.70;2.43;;;5.40;99.90;;;;;;5054297;28;20029;-55
2023/12/27 00:31:23;;;;;;;7.87;2.30;;;5.30;99.90;;;;;;5036252;28;20036;-55
2023/12/27 00:33:48;;;;;;;8.13;2.60;;;5.20;99.90;;;;;;5036400;28;20120;-55
2023/12/27 00:36:20;;;;;;;10.43;2.93;;;5.20;99.90;;;;;;5054138;28;20119;-55
2023/12/27 00:38:45;;;;;;;9.37;3.03;;;5.20;99.90;;;;;;5053957;28;20041;-55
2023/12/27 00:41:11;;;;;;;9.53;2.73;;;5.10;99.90;;;;;;5053606;28;20037;-52
2023/12/27 00:43:37;;;;;;;6.17;2.30;;;5.00;99.90;;;;;;5053556;28;20095;-53
2023/12/27 00:46:06;;;;;;;9.27;2.50;;;5.00;99.90;;;;;;5053783;28;20095;-55
2023/12/27 00:48:31;;;;;;;10.87;3.57;;;4.90;99.90;;;;;;5053371;28;20029;-53
2023/12/27 00:50:59;;;;;;;14.83;2.77;;;5.00;99.90;;;;;;5035892;28;20032;-52
2023/12/27 00:53:24;;;;;;;12.50;2.47;;;5.00;99.90;;;;;;5053593;28;20485;-56
2023/12/27 00:55:50;;;;;;;12.73;2.53;;;5.00;99.90;;;;;;5052575;28;20039;-55
2023/12/27 00:58:16;;;;;;;10.47;2.17;;;5.00;99.90;;;;;;5035217;28;20028;-55
2023/12/27 01:00:42;;;;;;;13.63;2.63;;;4.90;99.90;;;;;;5035528;28;20025;-56
2023/12/27 01:03:08;;;;;;;7.43;2.20;;;4.90;99.90;;;;;;5035546;28;20486;-55
2023/12/27 01:05:33;;;;;;;8.60;2.20;;;4.80;99.90;;;;;;5053253;28;20041;-56
2023/12/27 01:07:59;;;;;;;10.60;2.10;;;4.80;99.90;;;;;;5053117;28;20029;-55
2023/12/27 01:10:24;;;;;;;7.80;2.43;;;4.80;99.90;;;;;;5035191;28;20060;-56
2023/12/27 01:12:50;;;;;;;9.93;2.43;;;4.70;99.90;;;;;;5053188;28;20393;-55
2023/12/27 01:15:16;;;;;;;7.90;2.40;;;4.70;99.90;;;;;;5053195;28;20020;-56
2023/12/27 01:17:41;;;;;;;6.70;2.40;;;4.70;99.90;;;;;;5053084;28;20390;-56
2023/12/27 01:20:07;;;;;;;5.20;2.00;;;4.70;99.90;;;;;;5035314;28;20374;-54
2023/12/27 01:22:33;;;;;;;6.40;2.13;;;4.90;99.90;;;;;;5054076;28;20344;-53
2023/12/27 01:24:58;;;;;;;11.40;2.40;;;4.90;99.90;;;;;;5052982;28;20025;-55
2023/12/27 01:27:24;;;;;;;11.17;2.47;;;4.90;99.90;;;;;;5052945;28;20075;-55
2023/12/27 01:29:50;;;;;;;11.40;3.20;;;4.90;99.90;;;;;;5052778;28;20040;-55
2023/12/27 01:32:15;;;;;;;10.07;2.20;;;4.80;99.90;;;;;;5034979;28;20028;-56
2023/12/27 01:34:41;;;;;;;7.57;2.50;;;4.80;99.90;;;;;;5035216;28;20467;-56
2023/12/27 01:37:06;;;;;;;8.43;2.43;;;4.80;99.90;;;;;;5035193;28;20028;-55
2023/12/27 01:39:33;;;;;;;11.67;2.30;;;4.70;99.90;;;;;;5052693;28;20482;-55
2023/12/27 01:41:58;;;;;;;6.83;1.90;;;4.70;99.90;;;;;;5052713;28;20071;-56
2023/12/27 01:44:24;;;;;;;10.83;2.50;;;4.70;99.90;;;;;;5034954;28;20469;-56
2023/12/27 01:46:50;;;;;;;11.20;2.50;;;4.70;99.90;;;;;;5052716;28;20029;-54
2023/12/27 01:49:15;;;;;;;13.07;2.97;;;4.70;99.90;;;;;;5052493;28;20410;-51
2023/12/27 01:51:41;;;;;;;10.67;3.00;;;4.60;99.90;;;;;;5035374;28;20032;-54
2023/12/27 01:54:07;;;;;;;9.30;2.27;;;4.60;99.90;;;;;;5035687;28;20074;-55
2023/12/27 01:56:32;;;;;;;5.17;2.33;;;4.50;99.90;;;;;;5053764;28;20033;-52
2023/12/27 01:58:59;;;;;;;11.90;2.87;;;4.50;99.90;;;;;;5035841;28;20549;-53
2023/12/27 02:01:25;;;;;;;10.70;2.37;;;4.50;99.90;;;;;;5035281;28;20159;-55
2023/12/27 02:03:51;;;;;;;11.87;2.07;;;4.50;99.90;;;;;;5034563;28;20474;-54
2023/12/27 02:06:18;;;;;;;7.27;1.90;;;4.50;99.90;;;;;;5052177;28;20035;-55
2023/12/27 02:08:44;;;;;;;6.77;2.17;;;4.60;99.90;;;;;;5034014;28;20056;-56
2023/12/27 02:11:10;;;;;;;14.27;2.13;;;4.70;99.90;;;;;;5034065;28;20029;-55
2023/12/27 02:13:35;;;;;;;6.57;2.20;;;4.70;99.90;;;;;;5034125;28;20024;-56
2023/12/27 02:16:01;;;;;;;11.27;3.07;;;4.70;99.90;;;;;;5034196;28;20464;-56
2023/12/27 02:18:28;;;;;;;7.30;2.03;;;4.60;99.90;;;;;;5051853;28;20021;-56
2023/12/27 02:20:55;;;;;;;7.33;2.30;;;4.60;99.90;;;;;;5051788;28;20045;-56
2023/12/27 02:23:23;;;;;;;8.10;2.30;;;4.70;99.90;;;;;;5052392;28;20033;-56
2023/12/27 02:25:51;;;;;;;6.23;2.00;;;4.60;99.90;;;;;;5034000;28;20067;-56
2023/12/27 02:28:16;;;;;;;9.70;2.47;;;4.70;99.90;;;;;;5017373;28;20043;-56
2023/12/27 02:30:43;;;;;;;13.77;2.73;;;4.60;99.90;;;;;;5033891;28;20070;-56
2023/12/27 02:33:09;;;;;;;13.17;2.90;;;4.60;99.90;;;;;;5033963;28;20413;-56
2023/12/27 02:35:34;;;;;;;6.37;2.17;;;4.60;99.90;;;;;;5033902;28;20033;-56
2023/12/27 02:38:01;;;;;;;10.03;2.70;;;4.60;99.90;;;;;;5051607;28;20454;-56
2023/12/27 02:40:26;;;;;;;11.93;3.00;;;4.50;99.90;;;;;;5033663;28;20041;-56
2023/12/27 02:42:52;;;;;;;9.27;2.37;;;4.50;99.90;;;;;;5033575;28;20180;-56
2023/12/27 02:45:18;;;;;;;10.70;2.63;;;4.50;99.90;;;;;;5033932;28;20025;-56
2023/12/27 02:47:44;;;;;;;9.27;2.30;;;4.60;99.90;;;;;;5033551;28;20025;-56
2023/12/27 02:50:10;;;;;;;11.03;2.97;;;4.60;99.90;;;;;;5033548;28;20112;-56
2023/12/27 02:52:35;;;;;;;11.07;2.87;;;4.60;99.90;;;;;;5033598;28;20017;-51
2023/12/27 02:55:01;;;;;;;8.80;2.27;;;4.60;99.90;;;;;;5033613;28;20504;-54
2023/12/27 02:57:27;;;;;;;7.67;2.37;;;4.50;99.90;;;;;;5033791;28;20040;-56
2023/12/27 02:59:53;;;;;;;10.40;3.17;;;4.50;99.90;;;;;;5033355;28;20024;-55
2023/12/27 03:02:19;;;;;;;13.60;3.70;;;4.50;99.90;;;;;;5033442;28;20472;-55
2023/12/27 03:04:44;;;;;;;10.80;3.63;;;4.50;99.90;;;;;;5033565;28;20039;-55
2023/12/27 03:07:11;;;;;;;11.07;3.00;;;4.50;99.90;;;;;;5033491;28;20039;-56
2023/12/27 03:09:37;;;;;;;7.73;2.90;;;4.40;99.90;;;;;;5033127;28;20112;-55
2023/12/27 03:12:03;;;;;;;9.63;2.50;;;4.40;99.90;;;;;;5051545;28;20426;-54
2023/12/27 03:14:28;;;;;;;11.93;3.03;;;4.40;99.90;;;;;;5033508;28;20035;-56
2023/12/27 03:16:54;;;;;;;9.53;2.77;;;4.40;99.90;;;;;;5033613;28;20029;-56
2023/12/27 03:19:19;;;;;;;10.00;3.20;;;4.40;99.90;;;;;;5054419;28;20038;-54
2023/12/27 03:21:45;;;;;;;6.73;2.63;;;4.40;99.90;;;;;;5037329;28;20025;-56
2023/12/27 03:24:11;;;;;;;8.17;2.47;;;4.40;99.90;;;;;;5037533;28;20167;-56
2023/12/27 03:26:36;;;;;;;11.80;2.80;;;4.50;99.90;;;;;;5055095;28;20033;-54
2023/12/27 03:29:02;;;;;;;7.50;2.50;;;4.60;99.90;;;;;;5054914;28;20029;-55
2023/12/27 03:31:30;;;;;;;10.17;3.17;;;4.60;99.90;;;;;;5055003;28;20108;-54
2023/12/27 03:33:56;;;;;;;10.93;2.85;;;4.60;99.90;;;;;;5055082;28;20036;-56
2023/12/27 03:36:23;;;;;;;12.20;3.17;;;4.60;99.90;;;;;;5037112;28;20032;-56
2023/12/27 03:38:48;;;;;;;7.97;2.67;;;4.50;99.90;;;;;;5036924;28;20037;-56
2023/12/27 03:41:14;;;;;;;8.13;2.83;;;4.40;99.90;;;;;;5036940;28;20033;-56
2023/12/27 03:43:39;;;;;;;9.13;2.57;;;4.40;99.90;;;;;;5054735;28;20035;-53
2023/12/27 03:46:05;;;;;;;8.23;2.57;;;4.30;99.90;;;;;;5054854;28;20029;-55
2023/12/27 03:48:30;;;;;;;9.97;2.23;;;4.30;99.90;;;;;;5054489;28;20068;-55
2023/12/27 03:50:56;;;;;;;9.33;3.17;;;4.40;99.90;;;;;;5054630;28;20478;-54
2023/12/27 03:53:21;;;;;;;6.30;2.03;;;4.40;99.90;;;;;;5054800;28;20045;-53
2023/12/27 03:55:47;;;;;;;9.17;2.33;;;4.50;99.90;;;;;;5020321;28;20440;-55
2023/12/27 03:58:13;;;;;;;7.73;2.60;;;4.60;99.90;;;;;;5054341;28;20025;-56
2023/12/27 04:00:39;;;;;;;10.57;3.00;;;4.60;99.90;;;;;;5036609;28;20075;-55
2023/12/27 04:03:05;;;;;;;10.73;2.67;;;4.60;99.90;;;;;;5036635;28;20370;-54
2023/12/27 04:05:31;;;;;;;6.77;3.10;;;4.60;99.90;;;;;;5054466;28;20111;-55
2023/12/27 04:07:56;;;;;;;9.00;2.90;;;4.50;99.90;;;;;;5036454;28;20025;-56
2023/12/27 04:10:22;;;;;;;9.70;2.97;;;4.50;99.90;;;;;;5054392;28;20378;-56
2023/12/27 04:12:48;;;;;;;11.33;2.57;;;4.50;99.90;;;;;;5036249;28;20202;-55
2023/12/27 04:15:14;;;;;;;8.07;2.60;;;4.50;99.90;;;;;;5036327;28;20496;-55
2023/12/27 04:17:39;;;;;;;10.37;2.40;;;4.50;99.90;;;;;;5036324;28;20029;-55
2023/12/27 04:20:06;;;;;;;13.37;3.30;;;4.50;99.90;;;;;;5036163;28;20039;-55
2023/12/27 04:22:31;;;;;;;7.87;2.23;;;4.50;99.90;;;;;;5036164;28;20120;-56
2023/12/27 04:24:57;;;;;;;11.10;3.10;;;4.70;99.90;;;;;;5036206;28;20116;-56
2023/12/27 04:27:22;;;;;;;7.50;2.60;;;4.70;99.90;;;;;;5036217;28;20494;-56
2023/12/27 04:29:48;;;;;;;9.73;2.60;;;4.70;99.90;;;;;;5034583;28;20477;-56
2023/12/27 04:32:14;;;;;;;7.53;2.43;;;4.90;99.90;;;;;;5053907;28;20470;-56
2023/12/27 04:34:39;;;;;;;10.53;2.90;;;4.90;99.90;;;;;;5036220;28;20044;-51
2023/12/27 04:37:05;;;;;;;10.63;2.80;;;4.80;99.90;;;;;;5036007;28;20036;-55
2023/12/27 04:39:31;;;;;;;9.10;2.80;;;4.80;99.90;;;;;;5035773;28;20179;-56
2023/12/27 04:41:58;;;;;;;6.33;2.23;;;4.80;99.90;;;;;;5035771;28;20029;-56
2023/12/27 04:44:23;;;;;;;7.77;2.47;;;4.90;99.90;;;;;;5035929;28;20040;-55
2023/12/27 04:46:49;;;;;;;6.43;2.80;;;4.90;99.90;;;;;;5053708;28;20037;-56
2023/12/27 04:49:14;;;;;;;11.70;3.07;;;4.80;99.90;;;;;;5035692;28;20115;-56
2023/12/27 04:51:40;;;;;;;10.87;2.43;;;4.90;99.90;;;;;;5035662;28;20029;-54
2023/12/27 04:54:06;;;;;;;9.20;2.13;;;5.00;99.90;;;;;;5035859;28;20056;-55
2023/12/27 04:56:32;;;;;;;9.23;2.40;;;5.10;99.90;;;;;;5035723;28;20392;-56
2023/12/27 04:58:57;;;;;;;10.17;2.17;;;5.10;99.90;;;;;;5035393;28;20043;-55
2023/12/27 05:01:23;;;;;;;6.50;1.90;;;5.20;99.90;;;;;;5035744;28;20041;-56
2023/12/27 05:03:50;;;;;;;8.37;3.03;;;5.30;99.90;;;;;;5053755;28;20039;-54
2023/12/27 05:06:15;;;;;;;6.17;1.87;;;5.50;99.90;;;;;;5035673;28;20037;-56
2023/12/27 05:08:42;;;;;;;5.03;1.83;;;5.50;99.90;;;;;;5035294;28;20025;-59
2023/12/27 05:11:19;;;;;;;9.07;2.00;;;5.40;99.90;;;;;;5035427;28;20032;-56
2023/12/27 05:13:45;;;;;;;6.70;1.77;;;5.60;99.90;;;;;;5053357;28;20037;-56
2023/12/27 05:16:15;;;;;;;5.00;1.60;;;5.60;99.90;;;;;;5053394;28;20528;-56
2023/12/27 05:18:42;;;;;;;7.00;1.80;;;5.70;99.90;;;;;;5053028;28;20037;-56
2023/12/27 05:21:09;;;;;;;5.40;1.60;;;5.70;99.90;;;;;;5053133;28;20033;-55
2023/12/27 05:23:34;;;;;;;7.03;1.73;;;5.70;99.90;;;;;;5053423;28;20037;-55
2023/12/27 05:26:01;;;;;;;5.93;1.60;;;5.70;99.90;;;;;;5053046;28;20037;-55
2023/12/27 05:28:27;;;;;;;4.13;1.33;;;5.80;99.90;;;;;;5052902;28;20044;-56
2023/12/27 05:30:52;;;;;;;10.27;2.20;;;5.80;99.90;;;;;;5052974;28;20021;-55
2023/12/27 05:33:18;;;;;;;6.63;1.53;;;5.70;99.90;;;;;;5052997;28;20063;-55
2023/12/27 05:35:44;;;;;;;6.83;1.47;;;5.70;99.90;;;;;;5053170;28;20462;-56
2023/12/27 05:38:09;;;;;;;6.93;1.77;;;5.80;99.90;;;;;;5035228;28;20029;-56
2023/12/27 05:40:35;;;;;;;8.70;1.67;;;5.80;99.90;;;;;;5052333;28;20477;-55
2023/12/27 05:43:00;;;;;;;7.93;1.63;;;5.80;99.90;;;;;;5052632;28;20119;-55
2023/12/27 05:45:26;;;;;;;6.73;1.60;;;5.80;99.90;;;;;;5052769;28;20455;-56
2023/12/27 05:47:52;;;;;;;6.40;1.50;;;5.80;99.90;;;;;;5052422;28;20108;-56
2023/12/27 05:50:17;;;;;;;6.93;1.40;;;5.80;99.90;;;;;;5052893;28;20105;-55
2023/12/27 05:52:44;;;;;;;7.43;1.47;;;5.90;99.90;;;;;;5052767;28;20402;-56
2023/12/27 05:55:09;;;;;;;9.77;1.67;;;5.90;99.90;;;;;;5034800;28;20072;-51
2023/12/27 05:57:35;;;;;;;4.30;1.53;;;6.00;99.90;;;;;;5052644;28;20118;-54
2023/12/27 06:00:00;;;;;;;6.90;1.80;;;6.00;99.90;;;;;;5052497;28;20154;-55
2023/12/27 06:02:26;;;;;;;11.43;2.27;;;6.00;99.90;;;;;;5052383;28;20060;-56
2023/12/27 06:04:52;;;;;;;10.17;2.50;;;6.00;99.90;;;;;;5052569;28;20100;-56
2023/12/27 06:07:17;;;;;;;6.90;1.43;;;6.10;99.90;;;;;;5052457;28;20061;-53
2023/12/27 06:09:43;;;;;;;6.40;1.77;;;6.10;99.90;;;;;;5052171;28;20497;-56
2023/12/27 06:12:09;;;;;;;4.13;1.47;;;6.10;99.90;;;;;;5052384;28;20025;-56
2023/12/27 06:14:35;;;;;;;6.77;1.80;;;6.20;99.90;;;;;;5052419;28;20048;-54
2023/12/27 06:17:01;;;;;;;7.30;1.50;;;6.20;99.90;;;;;;5052246;28;20029;-54
2023/12/27 06:19:31;;;;;;;4.97;1.57;;;6.20;99.90;;;;;;5052043;28;20459;-54
2023/12/27 06:21:57;;;;;;;11.17;1.77;;;6.20;99.90;;;;;;5052149;28;20032;-56
2023/12/27 06:24:23;;;;;;;4.80;1.30;;;6.20;99.90;;;;;;5052138;28;20371;-56
2023/12/27 06:26:49;;;;;;;6.23;1.40;;;6.20;99.90;;;;;;5052156;28;20057;-55
2023/12/27 06:29:15;;;;;;;4.63;1.50;;;6.30;99.90;;;;;;5051790;28;20072;-55
2023/12/27 06:31:41;;;;;;;12.10;1.80;;;6.30;99.90;;;;;;5052113;28;20032;-56
2023/12/27 06:34:07;;;;;;;10.60;2.23;;;6.40;99.90;;;;;;5052093;28;20113;-56
2023/12/27 06:36:33;;;;;;;6.10;1.63;;;6.40;99.90;;;;;;5052295;28;20021;-56
2023/12/27 06:38:58;;;;;;;4.33;1.57;;;6.40;99.90;;;;;;5051632;28;20534;-56
2023/12/27 06:41:24;;;;;;;3.97;1.50;;;6.50;99.90;;;;;;5052269;28;20029;-55
2023/12/27 06:43:50;;;;;;;5.57;1.80;;;6.50;99.90;;;;;;5052011;28;20064;-55
2023/12/27 06:46:15;;;;;;;7.93;1.50;;;6.50;99.90;;;;;;5051851;28;20029;-56
2023/12/27 06:48:41;;;;;;;6.60;1.57;;;6.60;99.90;;;;;;5033824;28;20120;-56
2023/12/27 06:51:07;;;;;;;4.37;1.50;;;6.60;99.90;;;;;;5051797;28;20029;-55
2023/12/27 06:53:33;;;;;;;5.37;1.30;;;6.60;99.90;;;;;;5051064;28;20320;-56
2023/12/27 06:56:02;;;;;;;7.50;1.97;;;6.60;99.90;;;;;;5051853;28;20044;-55
2023/12/27 06:58:27;;;;;;;5.37;1.70;;;6.60;99.90;;;;;;5051777;28;20492;-55
2023/12/27 07:00:53;;;;;;;6.50;1.47;;;6.70;99.90;;;;;;5051663;28;20044;-55
2023/12/27 07:03:19;;;;;;;6.77;1.60;;;6.70;99.90;;;;;;5051747;28;20068;-54
2023/12/27 07:05:44;;;;;;;3.80;1.70;;;6.70;99.90;;;;;;5051787;28;20041;-53
2023/12/27 07:08:10;;;;;;;5.70;1.80;;;6.70;99.90;;;;;;5051409;28;20029;-55
2023/12/27 07:10:35;;;;;;;3.73;1.47;;;6.80;99.90;;;;;;5051494;28;20025;-54
2023/12/27 07:13:01;;;;;;;6.37;1.87;;;6.70;99.90;;;;;;5051563;28;20363;-54
2023/12/27 07:15:27;;;;;;;7.80;2.00;;;6.70;99.90;;;;;;5051633;28;20072;-53
2023/12/27 07:17:53;;;;;;;5.73;2.50;;;6.80;99.90;;;;;;5051460;28;20555;-54
2023/12/27 07:20:19;;;;;;;5.33;1.70;;;6.80;99.90;;;;;;5051532;28;20033;-55
2023/12/27 07:22:45;;;;;;;4.40;1.80;;;6.80;99.90;;;;;;5051566;28;20033;-56
2023/12/27 07:25:11;;;;;;;8.10;2.47;;;6.70;99.90;;;;;;5051524;28;20087;-57
2023/12/27 07:27:36;;;;;;;7.00;1.70;;;6.70;99.90;;;;;;5051497;28;20060;-57
2023/12/27 07:30:02;;;;;;;5.00;1.90;;;6.70;99.90;;;;;;5051269;28;20025;-53
2023/12/27 07:32:28;;;;;;;5.00;2.10;;;6.80;99.90;;;;;;5051709;28;20378;-56
2023/12/27 07:34:57;;;;;;;9.60;2.00;;;6.80;99.90;;;;;;5051423;28;20036;-56
2023/12/27 07:37:24;;;;;;;5.63;2.10;;;6.90;99.90;;;;;;5051415;28;20037;-56
2023/12/27 07:39:49;;;;;;;4.60;2.07;;;7.00;99.90;;;;;;5051167;28;20116;-56
2023/12/27 07:42:16;;;;;;;5.17;2.03;;;7.00;99.90;;;;;;5051257;28;20111;-56
2023/12/27 07:44:42;;;;;;;7.70;1.63;;;7.00;99.90;;;;;;5051535;28;20040;-57
2023/12/27 07:47:07;;;;;;;7.03;2.20;;;7.00;99.90;;;;;;5051386;28;20040;-53
2023/12/27 07:49:33;;;;;;;7.87;2.00;;;6.90;99.90;;;;;;5051180;28;20115;-57
2023/12/27 07:51:59;;;;;;;4.47;2.07;;;6.90;99.90;;;;;;5051311;28;20116;-52
2023/12/27 07:54:25;;;;;;;10.40;3.33;;;6.90;99.90;;;;;;5051495;28;20075;-57
2023/12/27 07:56:51;;;;;;;5.23;2.00;;;7.00;99.90;;;;;;5051269;28;20074;-53
2023/12/27 07:59:17;;;;;;;4.87;2.03;;;7.00;99.90;;;;;;5051105;28;20040;-54
2023/12/27 08:01:43;;;;;;;7.57;2.30;;;6.90;99.90;;;;;;5051320;28;20028;-56
2023/12/27 08:04:09;;;;;;;5.87;1.97;;;6.90;99.90;;;;;;5051972;28;20096;-52
2023/12/27 08:06:35;;;;;;;5.23;2.20;;;6.90;99.90;;;;;;5054789;28;20440;-57
2023/12/27 08:09:00;;;;;;;6.50;1.70;;;6.90;99.90;;;;;;5054467;28;20017;-51
2023/12/27 08:11:26;;;;;;;3.83;1.70;;;6.90;99.90;;;;;;5054705;28;20018;-54
2023/12/27 08:13:52;;;;;;;4.20;1.80;;;6.90;99.90;;;;;;5054727;28;20420;-56
2023/12/27 08:16:17;;;;;;;5.17;2.33;;;6.90;99.90;;;;;;5054732;28;20029;-52
2023/12/27 08:18:43;;;;;;;7.23;2.13;;;6.90;99.90;;;;;;5054513;28;20112;-56
2023/12/27 08:21:09;;;;;;;8.43;2.03;;;7.00;99.90;;;;;;5054646;28;20051;-52
2023/12/27 08:23:36;;;;;;;4.90;2.10;;;6.90;99.90;;;;;;5037156;28;20437;-53
2023/12/27 08:26:06;;;;;;;6.23;2.10;;;7.00;99.90;;;;;;5036810;28;20543;-53
2023/12/27 08:28:33;;;;;;;10.70;2.60;;;7.00;99.90;;;;;;5054484;28;20061;-56
2023/12/27 08:30:59;;;;;;;5.00;1.87;;;7.00;99.90;;;;;;5055125;28;20029;-52
2023/12/27 08:33:25;;;;;;;6.47;1.70;;;7.10;99.90;;;;;;5055193;28;20035;-55
2023/12/27 08:35:50;;;;;;;5.30;1.87;;;7.10;99.90;;;;;;5055999;28;20056;-57
2023/12/27 08:38:16;;;;;;;7.83;2.00;;;7.10;99.90;;;;;;5039021;28;20037;-52
2023/12/27 08:40:41;;;;;;;4.47;1.73;;;7.10;99.90;;;;;;5056515;28;20079;-51
2023/12/27 08:43:07;;;;;;;6.83;2.00;;;7.20;99.90;;;;;;5055940;28;20036;-53
2023/12/27 08:45:34;;;;;;;4.07;1.83;;;7.20;99.90;;;;;;5056040;28;20436;-52
2023/12/27 08:48:00;;;;;;;6.20;1.70;;;7.20;99.90;;;;;;5054590;28;20044;-56
2023/12/27 08:50:25;;;;;;;5.17;2.03;;;7.20;99.90;;;;;;5053812;28;20043;-56
2023/12/27 08:52:51;;;;;;;5.70;2.00;;;7.20;99.90;;;;;;5035997;28;20033;-55
2023/12/27 08:55:17;;;;;;;4.40;1.47;;;7.30;99.90;;;;;;5053666;28;20024;-56
2023/12/27 08:57:42;;;;;;;3.33;1.60;;;7.30;99.90;;;;;;5053704;28;20437;-56
2023/12/27 09:00:10;;;;;;;7.97;1.30;;;7.30;99.90;;;;;;5035673;28;20087;-54
2023/12/27 09:02:39;;;;;;;19.60;7.73;;;7.40;99.90;;;;;;5053608;28;20055;-52
2023/12/27 09:05:06;;;;;;;6.03;2.17;;;7.40;99.90;;;;;;5035756;28;20486;-56
2023/12/27 09:07:31;;;;;;;6.07;2.03;;;7.40;99.90;;;;;;5053833;28;20032;-56
2023/12/27 09:09:58;;;;;;;3.60;1.60;;;7.50;99.90;;;;;;5053775;28;20378;-55
2023/12/27 09:12:23;;;;;;;4.97;1.60;;;7.50;99.90;;;;;;5054182;28;20040;-55
2023/12/27 09:14:49;;;;;;;3.07;1.67;;;7.60;99.90;;;;;;5054494;28;20032;-56
2023/12/27 09:17:15;;;;;;;3.57;1.43;;;7.60;99.90;;;;;;5053170;28;20043;-53
2023/12/27 09:19:42;;;;;;;5.17;1.30;;;7.60;99.90;;;;;;5053156;28;20032;-54
2023/12/27 09:22:08;;;;;;;4.17;1.23;;;7.60;99.90;;;;;;5053280;28;20123;-51
2023/12/27 09:24:35;;;;;;;3.00;1.40;;;7.70;99.90;;;;;;5053279;28;20067;-53
2023/12/27 09:27:00;;;;;;;4.87;1.40;;;7.70;99.90;;;;;;5053422;28;20143;-54
2023/12/27 09:29:26;;;;;;;3.30;1.43;;;7.80;99.90;;;;;;5052895;28;20044;-55
2023/12/27 09:31:52;;;;;;;4.57;1.60;;;7.80;99.90;;;;;;5035282;28;20052;-56
2023/12/27 09:34:17;;;;;;;3.37;1.60;;;7.80;99.90;;;;;;5053017;28;20074;-56
2023/12/27 09:36:43;;;;;;;2.50;1.07;;;7.80;99.90;;;;;;5053047;28;20121;-55
2023/12/27 09:39:11;;;;;;;4.67;2.03;;;7.90;99.90;;;;;;5052764;28;20021;-54
2023/12/27 09:41:37;;;;;;;2.73;1.17;;;7.90;99.90;;;;;;5052915;28;20039;-55
2023/12/27 09:44:06;;;;;;;4.93;1.10;;;7.90;99.90;;;;;;5035089;28;20036;-56
2023/12/27 09:46:33;;;;;;;3.47;1.33;;;8.00;99.90;;;;;;5052882;28;20036;-55
2023/12/27 09:48:58;;;;;;;2.83;1.07;;;8.00;99.90;;;;;;5034600;28;20044;-55
2023/12/27 09:51:25;;;;;;;3.73;1.30;;;8.10;99.90;;;;;;5052665;28;20028;-56
2023/12/27 09:53:51;;;;;;;3.13;1.13;;;8.10;99.90;;;;;;5052709;28;20029;-56
2023/12/27 09:56:18;;;;;;;4.13;1.60;;;8.10;99.90;;;;;;5052628;28;20171;-56
2023/12/27 09:58:45;;;;;;;5.57;1.77;;;8.10;99.90;;;;;;5034515;28;20044;-55
2023/12/27 10:01:12;;;;;;;7.37;1.50;;;8.20;99.90;;;;;;5052442;28;20039;-56
2023/12/27 10:03:42;;;;;;;4.43;1.20;;;8.20;99.90;;;;;;5052430;28;20040;-55
2023/12/27 10:06:20;;;;;;;2.20;1.10;;;8.20;99.90;;;;;;5052676;28;20091;-56
2023/12/27 10:08:46;;;;;;;3.07;1.43;;;8.20;99.90;;;;;;5052303;28;20032;-55
2023/12/27 10:11:12;;;;;;;5.67;1.37;;;8.20;99.90;;;;;;5052367;28;20033;-57
2023/12/27 10:13:41;;;;;;;3.03;1.30;;;8.20;99.90;;;;;;5052519;28;20078;-57
2023/12/27 10:16:07;;;;;;;2.87;1.13;;;8.20;99.90;;;;;;5052421;28;20035;-56
2023/12/27 10:18:33;;;;;;;3.03;1.17;;;8.20;99.90;;;;;;5051930;28;20088;-56
2023/12/27 10:20:59;;;;;;;4.63;1.97;;;8.20;99.90;;;;;;5034519;28;20112;-56
2023/12/27 10:23:25;;;;;;;3.27;1.60;;;8.30;99.90;;;;;;5052373;28;20417;-56
2023/12/27 10:25:51;;;;;;;2.90;0.90;;;8.30;99.90;;;;;;5052245;28;20079;-56
2023/12/27 10:28:22;;;;;;;2.07;1.23;;;8.30;99.90;;;;;;5052012;28;20063;-55
2023/12/27 10:30:47;;;;;;;2.67;1.40;;;8.30;99.90;;;;;;5052294;28;20064;-53
2023/12/27 10:33:13;;;;;;;2.50;1.50;;;8.40;99.90;;;;;;5052123;28;20281;-51
2023/12/27 10:35:39;;;;;;;1.70;1.13;;;8.40;99.90;;;;;;5052145;28;20111;-55
2023/12/27 10:38:05;;;;;;;2.50;1.17;;;8.50;99.90;;;;;;5051868;28;20520;-55
2023/12/27 10:40:35;;;;;;;4.07;1.53;;;8.50;99.90;;;;;;5052077;28;20036;-56
2023/12/27 10:43:00;;;;;;;4.95;1.60;;;8.60;99.90;;;;;;5051875;28;20067;-56
2023/12/27 10:45:26;;;;;;;3.57;1.43;;;8.60;99.90;;;;;;5051985;28;20064;-56
2023/12/27 10:48:01;;;;;;;3.77;1.00;;;8.70;99.90;;;;;;5051801;28;20079;-56
2023/12/27 10:50:28;;;;;;;4.13;1.20;;;8.80;99.90;;;;;;5051867;28;20079;-52
2023/12/27 10:53:05;;;;;;;2.03;1.10;;;8.80;99.90;;;;;;5052276;28;20032;-55
2023/12/27 10:55:32;;;;;;;3.53;1.30;;;8.80;99.90;;;;;;5052434;28;20458;-55
2023/12/27 10:58:00;;;;;;;4.50;1.43;;;8.90;99.90;;;;;;5051902;28;20036;-55
2023/12/27 11:00:28;;;;;;;3.13;1.37;;;8.90;99.90;;;;;;5051684;28;20033;-54
2023/12/27 11:02:54;;;;;;;1.93;1.00;;;9.00;99.90;;;;;;5052179;28;20051;-55
2023/12/27 11:05:23;;;;;;;3.23;0.93;;;9.00;99.90;;;;;;5051976;28;20032;-54
2023/12/27 11:07:53;;;;;;;2.90;1.47;;;9.10;99.90;;;;;;5052236;28;20108;-55
2023/12/27 11:10:19;;;;;;;1.93;0.97;;;9.10;99.90;;;;;;5052067;28;20033;-54
2023/12/27 11:12:49;;;;;;;3.00;1.40;;;9.10;99.90;;;;;;5051733;28;20025;-55
2023/12/27 11:15:15;;;;;;;3.03;1.02;;;9.10;99.90;;;;;;5051634;28;20358;-57
2023/12/27 11:17:42;;;;;;;2.87;1.20;;;9.10;99.90;;;;;;5051591;28;20171;-57
2023/12/27 11:20:10;;;;;;;3.27;1.30;;;9.20;99.90;;;;;;5051360;28;20021;-56
2023/12/27 11:22:37;;;;;;;2.67;1.02;;;9.20;99.90;;;;;;5051610;28;20044;-56
2023/12/27 11:25:03;;;;;;;3.27;1.10;;;9.20;99.90;;;;;;5052090;28;20033;-53
2023/12/27 11:27:30;;;;;;;3.40;1.20;;;9.20;99.90;;;;;;5051583;28;20429;-55
2023/12/27 11:29:57;;;;;;;1.80;0.80;;;9.20;99.90;;;;;;5051394;28;20055;-56
2023/12/27 11:32:24;;;;;;;1.37;0.97;;;9.20;99.90;;;;;;5051287;28;20083;-55
2023/12/27 11:34:50;;;;;;;34.53;15.57;;;9.30;99.90;;;;;;5051622;28;20501;-55
2023/12/27 11:37:16;;;;;;;6.50;3.00;;;9.40;99.90;;;;;;5051421;28;20041;-56
2023/12/27 11:39:48;;;;;;;2.47;1.20;;;9.40;99.90;;;;;;5053617;28;20035;-56
2023/12/27 11:42:17;;;;;;;1.97;0.90;;;9.40;99.90;;;;;;5055823;28;20048;-57
2023/12/27 11:44:49;;;;;;;3.85;1.20;;;9.50;99.90;;;;;;5055527;28;20044;-56
2023/12/27 11:47:16;;;;;;;1.90;1.03;;;9.40;99.90;;;;;;5055263;28;20041;-55
2023/12/27 11:50:02;;;;;;;3.37;1.23;;;9.50;99.90;;;;;;5054851;28;20025;-56
2023/12/27 11:52:28;;;;;;;1.17;0.60;;;9.50;99.90;;;;;;5037079;28;20029;-55
2023/12/27 11:55:09;;;;;;;2.87;1.50;;;9.50;99.90;;;;;;5055103;28;20393;-55
2023/12/27 11:57:35;;;;;;;3.10;0.80;;;9.50;99.90;;;;;;5055064;28;20033;-55
2023/12/27 12:00:01;;;;;;;2.00;1.00;;;9.50;99.90;;;;;;5054665;28;20081;-53
2023/12/27 12:02:27;;;;;;;2.37;1.20;;;9.60;99.90;;;;;;5054740;28;20088;-55
2023/12/27 12:05:08;;;;;;;1.33;0.83;;;9.60;99.90;;;;;;5054875;28;20036;-55
2023/12/27 12:07:56;;;;;;;2.30;1.10;;;9.60;99.90;;;;;;5055582;28;20037;-55
2023/12/27 12:10:24;;;;;;;2.70;1.17;;;9.60;99.90;;;;;;5054609;28;20033;-55
2023/12/27 12:12:51;;;;;;;3.30;1.30;;;9.60;99.90;;;;;;5054691;28;20544;-56
2023/12/27 12:15:20;;;;;;;1.60;0.80;;;9.50;99.90;;;;;;5054716;28;20033;-55
2023/12/27 12:17:48;;;;;;;4.93;1.20;;;9.60;99.90;;;;;;5054466;28;20132;-55
2023/12/27 12:20:13;;;;;;;1.17;0.70;;;9.60;99.90;;;;;;5054630;28;20029;-56
2023/12/27 12:22:41;;;;;;;2.80;0.93;;;9.60;99.90;;;;;;5054391;28;20071;-56
2023/12/27 12:25:09;;;;;;;1.37;0.90;;;9.60;99.90;;;;;;5036658;28;20033;-53
2023/12/27 12:27:42;;;;;;;3.45;0.88;;;9.60;99.90;;;;;;5054452;28;20064;-54
2023/12/27 12:30:08;;;;;;;4.50;1.10;;;9.60;99.90;;;;;;5054359;28;20389;-53
2023/12/27 12:32:39;;;;;;;2.13;0.93;;;9.60;99.90;;;;;;5054190;28;20021;-55
2023/12/27 12:35:05;;;;;;;4.13;1.17;;;9.60;99.90;;;;;;5054539;28;20037;-55
2023/12/27 12:37:31;;;;;;;2.37;0.93;;;9.70;99.90;;;;;;5054209;28;20052;-55
2023/12/27 12:39:56;;;;;;;2.00;1.00;;;9.60;99.90;;;;;;5053861;28;20464;-56
2023/12/27 12:42:24;;;;;;;2.80;1.00;;;9.60;99.90;;;;;;5036203;28;20025;-54
2023/12/27 12:44:50;;;;;;;1.77;1.00;;;9.70;99.90;;;;;;5055148;28;20402;-51
2023/12/27 12:47:15;;;;;;;3.43;0.90;;;9.60;99.90;;;;;;5053836;28;20029;-54
2023/12/27 12:49:41;;;;;;;1.73;0.90;;;9.60;99.90;;;;;;5054096;28;20059;-55
2023/12/27 12:52:07;;;;;;;1.00;0.70;;;9.60;99.90;;;;;;5052924;28;20051;-52